Kalinovac HR Speed Test Log

Averages  Max Speed    
1 to 25 of 511** for City Kalinovac HR
Time
Speed Provider Size    User ConnectID  TestID   
1/15/20 8:00:46 pm 141.81 Mbps 17.73 MB/sPro Ping Doo 75 MB1619603735272 OUdOLibDn 
1/12/20 7:23:38 pm 126.18 Mbps 15.77 MB/sPro Ping Doo 75 MB1619603735272 mv2ME8Jl1 
1/12/20 7:23:30 pm 70.58 Mbps 8.82 MB/sPro Ping Doo 75 MB1619603735272 Y3vNOYgi7 
1/12/20 7:23:16 pm 90.17 Mbps 11.27 MB/sPro Ping Doo 75 MB1619603735272 WZlOGGuQX 
1/12/20 7:23:05 pm 88.83 Mbps 11.1 MB/sPro Ping Doo 75 MB1619603735272 Yrig6-PST 
1/12/20 7:13:23 pm 38.16 Mbps 4.77 MB/sPro Ping Doo 12 MB1619603735272 oAHIMYEIA 
1/12/20 7:13:14 pm 135.29 Mbps 16.91 MB/sPro Ping Doo 75 MB1619603735272 8jjAGcNyb 
1/12/20 7:13:07 pm 135.29 Mbps 16.91 MB/sPro Ping Doo 75 MB1619603735272 ezNgG05qp 
1/12/20 6:59:41 pm 133.03 Mbps 16.63 MB/sPro Ping Doo 75 MB1619603735272 cug6tg-6R 
1/12/20 6:59:33 pm 97.27 Mbps 12.16 MB/sPro Ping Doo 75 MB1619603735272 wM91fLdXs 
1/11/20 7:45:46 pm 42.39 Mbps 5.3 MB/sPro Ping Doo 12 MB1619603735272 tnVyqS75u 
1/11/20 7:45:35 pm 110.87 Mbps 13.86 MB/sPro Ping Doo 50 MB1619603735272 eo8pstcmc 
1/10/20 8:39:30 pm 132.55 Mbps 16.57 MB/sPro Ping Doo 75 MB1619603735272 HUHgbrDbI 
1/10/20 2:30:34 pm 111.91 Mbps 13.99 MB/sPro Ping Doo 75 MB1619603735272 OGkDVz3yV 
1/9/20 7:34:39 pm 114.19 Mbps 14.27 MB/sPro Ping Doo 75 MB1619603735272 byStoh14l 
1/9/20 7:34:31 pm 120.87 Mbps 15.11 MB/sPro Ping Doo 75 MB1619603735272 NTsdN~OFa 
1/9/20 7:34:20 pm 45.24 Mbps 5.66 MB/sPro Ping Doo 12 MB1619603735272 M0kJjMFX3 
1/9/20 7:34:16 pm 41.21 Mbps 5.15 MB/sPro Ping Doo 12 MB1619603735272 2rGOKKmED 
1/9/20 7:33:19 pm 28.03 Mbps 3.5 MB/sPro Ping Doo 12 MB1619603735272 jILuarrm2 
1/9/20 7:33:14 pm 35.08 Mbps 4.38 MB/sPro Ping Doo 12 MB1619603735272 VMhnzcTQg 
1/9/20 7:33:05 pm 52.55 Mbps 6.57 MB/sPro Ping Doo 50 MB1619603735272 3J15WsaDZ 
1/9/20 7:32:55 pm 54.83 Mbps 6.85 MB/sPro Ping Doo 50 MB1619603735272 GI0NV8O27 
1/9/20 7:32:44 pm 57.07 Mbps 7.13 MB/sPro Ping Doo 50 MB1619603735272 bGRdw50FN 
1/9/20 7:32:34 pm 27.57 Mbps 3.45 MB/sPro Ping Doo 50 MB1619603735272 KdYfl_Q6I 
1/9/20 7:30:14 pm 42 Mbps 5.25 MB/sPro Ping Doo 12 MB1619603735272 SDTXOHsUf 
  
** Partial Results: The most recent results have been displayed. Results over 50 Mbps are highlighted.
Graphed results calculation
Displaying Internet Speed Test results for City Kalinovac HR

Minimum

Min 27.57 Mbps : 28.03 Mbps

Average [show Median]

Average 100.05 Mbps : 38.87 Mbps

Maximum

Max 141.81 Mbps : 45.24 Mbps

Minimum

Minimum: 27.57 Mbps : 28.03 Mbps

Average

Average: 100.05 Mbps : 38.87 Mbps [show Median]

Maximum

Maximum: 141.81 Mbps : 45.24 Mbps